createdAt,value
2019-03-23T02:40:18.930Z,55.10
2019-03-23T11:55:43.514Z,39.50
2019-03-23T11:57:30.931Z,38.20
2019-03-23T11:58:30.941Z,39.60
2019-03-23T11:59:30.924Z,40.50
2019-03-23T12:00:30.923Z,39.40
2019-03-23T12:06:04.935Z,37.90
2019-03-23T15:14:29.655Z,36.40
2019-03-23T15:26:31.721Z,35.70
2019-03-23T15:39:26.213Z,34.40
2019-03-23T15:40:26.210Z,34.50
2019-03-23T15:41:26.207Z,34.90
2019-03-23T15:42:26.204Z,36.00
2019-03-23T15:43:26.199Z,36.10
2019-03-23T15:44:26.200Z,36.10
2019-03-23T15:45:26.195Z,35.10
2019-03-23T15:46:26.194Z,36.70
2019-03-23T15:47:26.189Z,37.30
2019-03-23T15:48:26.187Z,37.50
2019-03-23T15:49:26.182Z,38.50
2019-03-23T15:50:26.181Z,37.90
2019-03-23T15:52:08.588Z,38.70
2019-03-23T15:53:08.588Z,40.00
2019-03-23T15:54:08.583Z,39.30
2019-03-23T15:55:08.581Z,39.20
2019-03-23T15:56:08.576Z,39.70
2019-03-23T15:57:08.581Z,41.40
2019-03-23T16:02:17.536Z,40.00
2019-03-23T16:04:09.964Z,40.70
2019-03-23T16:05:09.963Z,40.20
2019-03-23T16:06:09.958Z,39.80
2019-03-23T16:07:09.961Z,39.40
2019-03-23T18:53:38.537Z,9.90
2019-03-23T18:54:38.540Z,9.40
2019-03-23T18:55:38.530Z,10.00
2019-03-23T18:56:38.526Z,9.50
2019-03-23T18:57:38.517Z,9.70
2019-03-23T18:58:38.520Z,9.70
2019-03-23T18:59:38.514Z,10.00
2019-03-23T19:00:38.518Z,9.90
2019-03-23T19:01:38.517Z,9.50
2019-03-23T19:02:38.515Z,9.00
2019-03-23T19:03:40.365Z,9.30
2019-03-23T19:04:38.486Z,9.40
2019-03-23T19:05:38.490Z,9.50
2019-03-23T19:06:38.476Z,10.20
2019-03-23T19:07:38.468Z,10.40
2019-03-23T19:08:38.470Z,10.00
2019-03-23T19:09:38.462Z,9.00
2019-03-23T19:10:38.917Z,9.60
2019-03-23T19:11:38.458Z,9.40
2019-03-23T19:12:38.445Z,9.10
2019-03-23T19:13:38.449Z,9.90
2019-03-23T19:27:23.759Z,9.50
2019-03-23T19:28:23.757Z,9.10
2019-03-23T19:29:23.752Z,9.30
2019-03-23T19:30:23.746Z,9.60
2019-03-23T19:31:23.739Z,9.10
2019-03-23T19:32:23.737Z,9.10
2019-03-23T19:33:23.728Z,9.30
2019-03-23T19:34:23.727Z,8.80
2019-03-23T19:35:23.720Z,9.00
2019-03-23T19:36:23.716Z,8.60
2019-03-23T19:37:23.708Z,8.00
2019-03-23T19:38:23.710Z,8.90
2019-03-23T19:39:23.701Z,7.80
2019-03-23T19:40:23.695Z,8.60
2019-03-23T19:41:23.688Z,8.10
2019-03-23T19:42:23.685Z,8.00
2019-03-23T19:43:23.678Z,8.40
2019-03-23T19:44:23.845Z,8.00
2019-03-23T19:45:23.667Z,7.90
2019-03-23T19:46:23.665Z,8.20
2019-03-23T19:47:23.659Z,7.50
2019-03-23T19:48:23.657Z,7.70
2019-03-23T19:49:23.647Z,7.80
2019-03-23T19:50:23.645Z,7.60
2019-03-23T19:51:23.638Z,7.60
2019-03-23T19:52:23.635Z,7.30
2019-03-23T19:53:23.643Z,7.90
2019-03-23T19:54:23.639Z,7.50
2019-03-23T19:55:23.617Z,7.60
2019-03-23T19:56:23.613Z,7.60
2019-03-23T19:57:23.606Z,7.70
2019-03-23T19:58:23.603Z,7.70
2019-03-23T19:59:23.596Z,7.90
2019-03-23T20:00:23.603Z,7.70
2019-03-23T20:01:23.584Z,8.30
2019-03-23T20:02:23.782Z,8.00
2019-03-23T20:03:23.582Z,8.20
2019-03-23T20:04:23.584Z,7.90
2019-03-23T20:05:23.563Z,7.60
2019-03-23T20:06:23.561Z,7.40
2019-03-23T20:07:32.680Z,7.80
2019-03-23T20:08:25.513Z,8.10
2019-03-23T20:09:23.544Z,7.90
2019-03-23T20:10:23.540Z,8.10
2019-03-23T20:11:23.557Z,8.20
2019-03-23T20:12:23.530Z,8.00
2019-03-23T20:13:23.521Z,7.60
2019-03-23T20:14:23.518Z,7.90
2019-03-23T20:15:23.513Z,7.70
2019-03-23T20:16:23.512Z,8.10
2019-03-23T20:17:23.500Z,7.30
2019-03-23T20:18:23.498Z,7.60
2019-03-23T20:19:23.490Z,7.60
2019-03-23T20:20:23.487Z,7.60
2019-03-23T20:21:23.480Z,8.50
2019-03-23T20:22:23.477Z,7.60
2019-03-23T20:23:23.470Z,8.60
2019-03-23T20:24:23.468Z,8.40
2019-03-23T20:25:23.459Z,7.50
2019-03-23T20:26:23.458Z,8.10
2019-03-23T20:27:23.449Z,8.60
2019-03-23T20:29:23.443Z,8.10
2019-03-23T20:30:23.433Z,8.30
2019-03-23T20:31:23.432Z,8.60
2019-03-23T20:32:23.425Z,8.60
2019-03-23T20:33:23.419Z,8.30
2019-03-23T20:34:23.412Z,8.60
2019-03-23T20:35:23.410Z,8.60
2019-03-23T20:36:23.405Z,9.20
2019-03-23T20:37:23.398Z,8.60
2019-03-23T20:38:23.391Z,8.40
2019-03-23T20:39:23.389Z,8.90
2019-03-23T20:40:23.382Z,9.20
2019-03-23T20:41:23.377Z,8.70
2019-03-23T20:42:23.370Z,9.00
2019-03-23T20:43:23.367Z,8.40
2019-03-23T20:44:23.362Z,9.20
2019-03-23T20:45:23.355Z,9.10
2019-03-23T20:46:23.393Z,9.20
2019-03-23T20:47:23.345Z,9.60
2019-03-23T20:48:23.339Z,9.10
2019-03-23T20:49:23.335Z,9.70
2019-03-23T20:50:23.333Z,9.30
2019-03-23T20:51:23.324Z,9.00
2019-03-23T20:52:23.317Z,9.00
2019-03-23T20:53:23.313Z,9.40
2019-03-23T20:54:23.305Z,9.70
2019-03-23T20:55:23.302Z,9.20
2019-03-23T20:56:23.295Z,9.50
2019-03-23T20:57:24.338Z,9.50
2019-03-23T20:58:23.283Z,9.40
2019-03-23T20:59:23.281Z,9.00
2019-03-23T21:00:23.276Z,9.40
2019-03-23T21:01:23.270Z,9.50
2019-03-23T21:02:23.264Z,9.10
2019-03-23T21:03:23.282Z,9.40
2019-03-23T21:04:23.251Z,8.50
2019-03-23T21:05:33.194Z,8.90
2019-03-23T21:06:23.240Z,8.90
2019-03-23T21:07:23.237Z,7.90
2019-03-23T21:08:23.227Z,8.00
2019-03-23T21:09:23.223Z,8.50
2019-03-23T21:10:23.215Z,8.40
2019-03-23T22:16:50.901Z,6.90
2019-03-23T22:17:50.895Z,6.80
2019-03-23T22:18:50.887Z,6.60
2019-03-23T22:19:50.883Z,6.60
2019-03-23T22:20:50.872Z,6.40
2019-03-23T22:22:50.860Z,7.20
